createdAt,value
2019-01-09T00:02:05.186Z,3.17
2019-01-09T00:05:07.188Z,2.53
2019-01-09T00:08:09.151Z,2.60
2019-01-09T00:11:11.120Z,2.53
2019-01-09T00:14:13.088Z,3.33
2019-01-09T00:17:15.015Z,2.07
2019-01-09T00:20:17.056Z,2.03
2019-01-09T00:23:19.022Z,2.20
2019-01-09T00:26:21.620Z,1.90
2019-01-09T00:29:23.560Z,2.30
2019-01-09T00:32:25.550Z,2.13
2019-01-09T00:35:27.590Z,2.40
2019-01-09T00:38:29.663Z,2.23
2019-01-09T00:41:31.574Z,2.00
2019-01-09T00:44:33.594Z,2.30
2019-01-09T00:47:35.550Z,2.43
2019-01-09T00:50:37.659Z,1.90
2019-01-09T00:53:39.551Z,2.37
2019-01-09T00:56:41.495Z,2.80
2019-01-09T00:59:43.610Z,1.80
2019-01-09T01:03:08.972Z,2.00
2019-01-09T01:06:23.549Z,2.20
2019-01-09T01:09:29.163Z,2.00
2019-01-09T01:12:54.184Z,2.00
2019-01-09T01:16:22.074Z,2.20
2019-01-09T01:19:30.406Z,2.50
2019-01-09T01:23:09.737Z,2.33
2019-01-09T01:26:24.141Z,2.53
2019-01-09T01:29:44.861Z,2.60
2019-01-09T01:33:05.744Z,2.13
2019-01-09T01:36:29.792Z,2.30
2019-01-09T01:39:41.353Z,2.63
2019-01-09T01:43:06.387Z,2.97
2019-01-09T01:46:24.310Z,4.17
2019-01-09T01:49:46.775Z,3.37
2019-01-09T01:52:58.228Z,2.50
2019-01-09T01:56:10.165Z,3.57
2019-01-09T01:59:15.679Z,3.03
2019-01-09T02:02:21.342Z,3.40
2019-01-09T02:05:27.006Z,2.90
2019-01-09T02:08:32.676Z,3.00
2019-01-09T02:11:38.233Z,3.27
2019-01-09T02:14:53.077Z,3.10
2019-01-09T02:18:07.369Z,2.90
2019-01-09T02:21:15.946Z,2.60
2019-01-09T02:24:21.511Z,2.90
2019-01-09T02:27:27.146Z,2.10
2019-01-09T02:30:47.556Z,2.47
2019-01-09T02:33:49.505Z,2.50
2019-01-09T02:36:51.586Z,1.87
2019-01-09T02:39:53.582Z,1.97
2019-01-09T02:42:55.532Z,1.93
2019-01-09T02:45:57.520Z,2.53
2019-01-09T02:48:59.527Z,2.10
2019-01-09T02:52:01.498Z,2.23
2019-01-09T02:55:04.811Z,2.03
2019-01-09T02:58:06.871Z,2.57
2019-01-09T03:01:08.753Z,4.10
2019-01-09T03:04:10.757Z,3.30
2019-01-09T03:07:14.503Z,4.27
2019-01-09T03:10:16.495Z,4.83
2019-01-09T03:13:18.433Z,3.70
2019-01-09T03:16:20.359Z,3.03
2019-01-09T03:19:22.585Z,6.93
2019-01-09T03:22:24.548Z,4.50
2019-01-09T03:25:26.505Z,4.43
2019-01-09T03:28:28.698Z,3.50
2019-01-09T03:31:30.642Z,3.33
2019-01-09T03:34:32.618Z,2.83
2019-01-09T03:37:34.758Z,3.77
2019-01-09T03:40:36.711Z,3.90
2019-01-09T03:43:38.655Z,3.57
2019-01-09T03:46:40.642Z,3.40
2019-01-09T03:49:42.761Z,3.13
2019-01-09T03:52:44.804Z,3.57
2019-01-09T03:55:46.847Z,2.93
2019-01-09T03:58:48.916Z,2.50
2019-01-09T04:01:50.912Z,2.57
2019-01-09T04:04:52.988Z,2.37
2019-01-09T04:07:54.982Z,2.80
2019-01-09T04:10:56.934Z,2.93
2019-01-09T04:13:58.838Z,2.73
2019-01-09T04:17:00.777Z,4.33
2019-01-09T04:20:04.385Z,3.93
2019-01-09T04:23:06.354Z,5.33
2019-01-09T04:26:08.267Z,6.97
2019-01-09T04:29:10.379Z,6.47
2019-01-09T04:32:12.375Z,4.93
2019-01-09T04:35:14.395Z,4.83
2019-01-09T04:38:16.494Z,5.97
2019-01-09T04:41:18.453Z,8.70
2019-01-09T04:44:20.404Z,4.70
2019-01-09T04:47:22.436Z,3.87
2019-01-09T04:50:24.365Z,3.70
2019-01-09T04:53:26.323Z,3.93
2019-01-09T04:56:28.836Z,3.10
2019-01-09T04:59:30.779Z,2.53
2019-01-09T05:02:32.665Z,3.20
2019-01-09T05:05:34.759Z,2.50
2019-01-09T05:08:36.710Z,2.30
2019-01-09T05:11:38.909Z,2.33
2019-01-09T05:14:40.798Z,2.00
2019-01-09T05:17:42.762Z,2.00
2019-01-09T05:20:46.020Z,2.30
2019-01-09T05:23:48.087Z,1.90
2019-01-09T05:26:50.027Z,1.70
2019-01-09T05:29:52.003Z,1.87
2019-01-09T05:32:53.893Z,1.70
2019-01-09T05:35:57.235Z,2.70
2019-01-09T05:38:59.433Z,2.20
2019-01-09T05:42:01.417Z,2.10
2019-01-09T05:45:03.673Z,1.90
2019-01-09T05:48:05.816Z,2.10
2019-01-09T05:51:07.769Z,2.20
2019-01-09T05:54:09.757Z,2.20
2019-01-09T05:57:11.789Z,2.50
2019-01-09T06:00:13.777Z,2.10
2019-01-09T06:03:15.713Z,2.37
2019-01-09T06:06:17.719Z,3.43
2019-01-09T06:09:19.706Z,4.07
2019-01-09T06:12:21.703Z,2.90
2019-01-09T06:15:23.629Z,2.97
2019-01-09T06:18:25.991Z,2.30
2019-01-09T06:21:28.056Z,2.20
2019-01-09T06:24:29.995Z,2.90
2019-01-09T06:27:32.045Z,2.40
2019-01-09T06:30:34.097Z,2.40
2019-01-09T06:33:36.077Z,2.20
2019-01-09T06:36:39.190Z,3.00
2019-01-09T06:39:41.265Z,2.60
2019-01-09T06:42:43.958Z,3.03
2019-01-09T06:45:45.912Z,2.90
2019-01-09T06:48:47.886Z,3.83
2019-01-09T06:51:49.819Z,3.27
2019-01-09T06:54:51.822Z,3.13
2019-01-09T06:57:53.919Z,3.20
2019-01-09T07:00:55.932Z,3.27
2019-01-09T07:03:57.807Z,3.30
2019-01-09T07:06:59.743Z,3.50
2019-01-09T07:10:01.946Z,3.17
2019-01-09T07:13:03.950Z,3.70
2019-01-09T07:16:05.882Z,3.20
2019-01-09T07:19:07.774Z,2.90
2019-01-09T07:22:09.664Z,3.07
2019-01-09T07:25:11.577Z,2.97
2019-01-09T07:28:13.507Z,3.73
2019-01-09T07:31:15.576Z,3.43
2019-01-09T07:34:17.502Z,3.33
2019-01-09T07:37:19.467Z,4.00
2019-01-09T07:40:22.362Z,4.10
2019-01-09T07:43:24.356Z,3.90
2019-01-09T07:46:26.262Z,4.00
2019-01-09T07:49:28.234Z,4.13
2019-01-09T07:52:30.248Z,4.37
2019-01-09T07:55:32.227Z,6.20
2019-01-09T07:58:34.302Z,6.20
2019-01-09T08:01:36.356Z,7.00
2019-01-09T08:04:38.311Z,8.00
2019-01-09T08:07:40.322Z,9.67
2019-01-09T08:10:42.427Z,8.63
2019-01-09T08:13:44.406Z,11.33
2019-01-09T08:16:46.307Z,15.90
2019-01-09T08:19:49.483Z,14.33
2019-01-09T08:22:51.462Z,11.80
2019-01-09T08:25:53.423Z,9.63
2019-01-09T08:28:55.360Z,9.63
2019-01-09T08:31:57.314Z,8.13
2019-01-09T08:34:59.532Z,9.57
2019-01-09T08:38:02.836Z,11.30
2019-01-09T08:41:05.778Z,8.73
2019-01-09T08:44:07.790Z,11.43
2019-01-09T08:47:09.704Z,13.50
2019-01-09T08:50:11.711Z,12.50
2019-01-09T08:53:14.847Z,12.97
2019-01-09T08:56:16.867Z,11.43
2019-01-09T08:59:19.398Z,11.17
2019-01-09T09:02:21.387Z,11.50
2019-01-09T09:05:23.299Z,9.90
2019-01-09T09:08:25.861Z,12.60
2019-01-09T09:11:27.849Z,12.13
2019-01-09T09:14:30.248Z,8.50
2019-01-09T09:17:32.145Z,9.97
2019-01-09T09:20:34.161Z,10.33
2019-01-09T09:23:36.132Z,12.47
2019-01-09T09:26:38.111Z,13.67
2019-01-09T09:29:40.068Z,12.20
2019-01-09T09:32:42.058Z,11.53
2019-01-09T09:35:43.982Z,10.70
2019-01-09T09:38:45.960Z,12.53
2019-01-09T09:41:48.041Z,13.60
2019-01-09T09:44:50.039Z,15.60
2019-01-09T09:47:52.428Z,14.47
2019-01-09T09:50:54.413Z,14.60
2019-01-09T09:53:56.460Z,10.60
2019-01-09T09:56:58.501Z,10.93
2019-01-09T10:00:00.496Z,9.27
2019-01-09T10:03:02.664Z,10.27
2019-01-09T10:06:04.584Z,10.50
2019-01-09T10:09:08.105Z,9.50
2019-01-09T10:12:10.095Z,9.07
2019-01-09T10:15:15.819Z,6.77
2019-01-09T10:18:18.788Z,6.40
2019-01-09T10:21:20.775Z,6.57
2019-01-09T10:24:22.685Z,5.77
2019-01-09T10:27:25.699Z,5.20
2019-01-09T10:30:27.616Z,6.20
2019-01-09T10:33:29.627Z,6.13
2019-01-09T10:36:31.590Z,5.27
2019-01-09T10:39:33.590Z,5.17
2019-01-09T10:42:35.729Z,5.70
2019-01-09T10:45:37.727Z,5.17
2019-01-09T10:48:39.655Z,5.13
2019-01-09T10:51:41.671Z,5.63
2019-01-09T10:54:43.635Z,5.50
2019-01-09T10:57:45.595Z,5.13
2019-01-09T11:00:47.683Z,5.10
2019-01-09T11:03:49.770Z,5.00
2019-01-09T11:06:51.743Z,5.17
2019-01-09T11:09:53.732Z,5.87
2019-01-09T11:12:55.730Z,5.33
2019-01-09T11:15:57.702Z,6.83
2019-01-09T11:18:59.624Z,6.00
2019-01-09T11:22:01.721Z,4.60
2019-01-09T11:25:08.555Z,4.90
2019-01-09T11:28:10.499Z,5.43
2019-01-09T11:31:12.429Z,4.50
2019-01-09T11:34:14.517Z,5.13
2019-01-09T11:37:16.453Z,5.33
2019-01-09T11:40:19.098Z,5.37
2019-01-09T11:43:21.196Z,6.70
2019-01-09T11:46:23.158Z,5.63
2019-01-09T11:49:25.084Z,6.30
2019-01-09T11:52:27.635Z,6.00
2019-01-09T11:55:29.621Z,5.63
2019-01-09T11:58:31.702Z,6.23
2019-01-09T12:01:33.663Z,6.23
2019-01-09T12:04:35.738Z,6.17
2019-01-09T12:07:37.884Z,6.17
2019-01-09T12:10:39.954Z,6.47
2019-01-09T12:13:41.913Z,5.87
2019-01-09T12:16:44.260Z,5.23
2019-01-09T12:19:46.187Z,5.67
2019-01-09T12:22:48.235Z,6.80
2019-01-09T12:25:50.191Z,6.20
2019-01-09T12:28:53.723Z,6.07
2019-01-09T12:31:56.019Z,5.00
2019-01-09T12:34:58.022Z,5.80
2019-01-09T12:37:59.934Z,8.57
2019-01-09T12:41:01.892Z,13.60
2019-01-09T12:44:04.227Z,14.37
2019-01-09T12:47:06.226Z,20.37
2019-01-09T12:50:11.778Z,15.20
2019-01-09T12:53:13.769Z,13.50
2019-01-09T12:56:15.708Z,23.73
2019-01-09T12:59:21.777Z,10.00
2019-01-09T13:02:21.555Z,21.33
2019-01-09T13:05:24.050Z,9.63
2019-01-09T13:08:25.956Z,19.00
2019-01-09T13:11:27.939Z,15.50
2019-01-09T13:14:30.031Z,11.07
2019-01-09T13:17:32.634Z,7.90
2019-01-09T13:20:34.999Z,18.57
2019-01-09T13:23:37.001Z,6.87
2019-01-09T13:26:38.940Z,19.00
2019-01-09T13:29:40.923Z,19.07
2019-01-09T13:32:42.894Z,9.03
2019-01-09T13:35:44.825Z,8.33
2019-01-09T13:38:46.756Z,14.53
2019-01-09T13:41:48.773Z,18.47
2019-01-09T13:44:50.940Z,29.70
2019-01-09T13:47:53.035Z,26.93
2019-01-09T13:50:54.954Z,21.83
2019-01-09T13:53:56.905Z,26.53
2019-01-09T13:56:58.915Z,25.63
2019-01-09T14:00:00.906Z,11.53
2019-01-09T14:03:03.053Z,19.40
2019-01-09T14:06:05.030Z,16.43
2019-01-09T14:09:07.180Z,51.27
2019-01-09T14:12:09.274Z,75.03
2019-01-09T14:15:14.156Z,80.77
2019-01-09T14:18:16.611Z,100.53
2019-01-09T14:21:18.587Z,98.03
2019-01-09T14:24:20.557Z,99.60
2019-01-09T14:27:22.497Z,49.03
2019-01-09T14:30:26.381Z,44.57
2019-01-09T14:33:28.323Z,41.53
2019-01-09T14:36:30.323Z,26.50
2019-01-09T14:39:32.241Z,19.27
2019-01-09T14:42:34.273Z,21.13
2019-01-09T14:45:36.372Z,17.40
2019-01-09T14:48:38.344Z,18.27
2019-01-09T14:51:43.187Z,14.27
2019-01-09T14:54:44.303Z,17.93
2019-01-09T14:57:46.437Z,23.70
2019-01-09T15:00:48.462Z,32.33
2019-01-09T15:03:50.411Z,37.50
2019-01-09T15:06:52.462Z,32.90
2019-01-09T15:09:56.760Z,23.80
2019-01-09T15:12:59.069Z,21.90
2019-01-09T15:16:01.098Z,30.07
2019-01-09T15:19:03.958Z,24.97
2019-01-09T15:22:05.887Z,18.53
2019-01-09T15:25:10.350Z,14.87
2019-01-09T15:28:12.292Z,14.93
2019-01-09T15:31:14.274Z,14.57
2019-01-09T15:34:16.209Z,17.10
2019-01-09T15:37:18.331Z,15.80
2019-01-09T15:40:22.870Z,14.87
2019-01-09T15:43:24.865Z,22.17
2019-01-09T15:46:26.959Z,26.23
2019-01-09T15:49:29.004Z,31.10
2019-01-09T15:52:30.941Z,27.43
2019-01-09T15:55:33.096Z,28.57
2019-01-09T15:58:35.110Z,27.10
2019-01-09T16:01:37.065Z,30.10
2019-01-09T16:04:39.166Z,29.23
2019-01-09T16:07:41.634Z,33.60
2019-01-09T16:10:43.618Z,30.13
2019-01-09T16:13:45.627Z,30.60
2019-01-09T16:16:47.575Z,29.53
2019-01-09T16:19:50.016Z,31.97
2019-01-09T16:22:51.969Z,50.33
2019-01-09T16:25:53.977Z,82.47
2019-01-09T16:28:55.913Z,60.07
2019-01-09T16:31:57.923Z,76.03
2019-01-09T16:34:59.820Z,85.23
2019-01-09T16:38:01.746Z,78.53
2019-01-09T16:41:03.790Z,42.50
2019-01-09T16:44:05.807Z,31.73
2019-01-09T16:47:07.911Z,51.13
2019-01-09T16:50:19.340Z,47.00
2019-01-09T16:53:21.263Z,32.27
2019-01-09T16:56:23.235Z,27.30
2019-01-09T16:59:25.433Z,46.30
2019-01-09T17:02:27.474Z,48.47
2019-01-09T17:05:29.433Z,45.37
2019-01-09T17:08:31.393Z,46.13
2019-01-09T17:11:33.352Z,44.07
2019-01-09T17:14:35.359Z,46.07
2019-01-09T17:17:37.398Z,30.70
2019-01-09T17:20:39.404Z,32.13
2019-01-09T17:23:41.431Z,43.03
2019-01-09T17:26:43.743Z,35.43
2019-01-09T17:29:45.669Z,47.27
2019-01-09T17:32:47.713Z,30.20
2019-01-09T17:35:49.832Z,30.40
2019-01-09T17:38:52.169Z,38.93
2019-01-09T17:41:54.072Z,60.03
2019-01-09T17:44:56.061Z,51.47
2019-01-09T17:47:58.156Z,75.80
2019-01-09T17:51:00.116Z,33.77
2019-01-09T17:54:02.048Z,46.50
2019-01-09T17:57:03.976Z,46.80
2019-01-09T18:00:15.344Z,38.63
2019-01-09T18:03:17.574Z,70.13
2019-01-09T18:06:19.467Z,63.13
2019-01-09T18:09:21.447Z,94.03
2019-01-09T18:12:23.406Z,91.40
2019-01-09T18:15:25.414Z,75.30
2019-01-09T18:18:28.858Z,84.67
2019-01-09T18:21:30.846Z,101.67
2019-01-09T18:24:32.805Z,108.50
2019-01-09T18:27:36.370Z,60.10
2019-01-09T18:30:41.958Z,100.57
2019-01-09T18:33:47.357Z,61.87
2019-01-09T18:37:04.904Z,73.93
2019-01-09T18:40:33.137Z,72.47
2019-01-09T18:43:56.250Z,68.43
2019-01-09T18:47:18.825Z,57.80
2019-01-09T18:50:42.858Z,61.43
2019-01-09T18:53:44.981Z,55.87
2019-01-09T18:56:46.871Z,54.40
2019-01-09T18:59:50.720Z,49.80
2019-01-09T19:02:52.650Z,74.20
2019-01-09T19:05:56.026Z,55.63
2019-01-09T19:08:57.931Z,71.17
2019-01-09T19:12:00.221Z,54.17
2019-01-09T19:15:03.594Z,64.77
2019-01-09T19:18:05.668Z,61.93
2019-01-09T19:21:08.685Z,120.13
2019-01-09T19:24:10.971Z,124.00
2019-01-09T19:27:14.732Z,73.07
2019-01-09T19:30:25.679Z,96.50
2019-01-09T19:33:27.587Z,79.87
2019-01-09T19:36:29.887Z,57.57
2019-01-09T19:39:33.158Z,74.50
2019-01-09T19:42:35.141Z,66.80
2019-01-09T19:45:37.210Z,78.13
2019-01-09T19:48:40.996Z,70.17
2019-01-09T19:51:45.843Z,86.07
2019-01-09T19:54:48.182Z,72.63
2019-01-09T19:57:50.078Z,119.70
2019-01-09T20:00:52.063Z,59.83
2019-01-09T20:03:53.993Z,61.80
2019-01-09T20:06:55.994Z,50.30
2019-01-09T20:09:58.367Z,52.67
2019-01-09T20:13:01.325Z,76.93
2019-01-09T20:16:05.028Z,58.73
2019-01-09T20:19:07.257Z,44.50
2019-01-09T20:22:10.096Z,54.70
2019-01-09T20:25:14.163Z,48.30
2019-01-09T20:28:16.369Z,69.03
2019-01-09T20:31:21.782Z,76.70
2019-01-09T20:34:24.424Z,57.70
2019-01-09T20:37:30.118Z,44.63
2019-01-09T20:40:32.551Z,44.23
2019-01-09T20:43:36.042Z,55.73
2019-01-09T20:46:38.169Z,73.97
2019-01-09T20:49:40.295Z,62.30
2019-01-09T20:52:43.824Z,50.83
2019-01-09T20:55:45.893Z,59.23
2019-01-09T20:58:47.833Z,70.47
2019-01-09T21:01:51.153Z,57.70
2019-01-09T21:04:53.265Z,57.20
2019-01-09T21:07:55.536Z,45.10
2019-01-09T21:10:58.697Z,52.70
2019-01-09T21:14:00.808Z,69.53
2019-01-09T21:17:03.872Z,60.93
2019-01-09T21:20:09.602Z,43.10
2019-01-09T21:23:11.759Z,44.50
2019-01-09T21:26:15.695Z,42.40
2019-01-09T21:29:19.505Z,40.73
2019-01-09T21:32:22.194Z,49.23
2019-01-09T21:35:24.072Z,36.60
2019-01-09T21:38:26.112Z,36.77
2019-01-09T21:41:28.022Z,34.27
2019-01-09T21:44:30.151Z,37.93
2019-01-09T21:47:32.109Z,35.60
2019-01-09T21:50:34.093Z,34.80
2019-01-09T21:53:36.208Z,33.17
2019-01-09T21:56:38.186Z,33.10
2019-01-09T21:59:40.149Z,33.60
2019-01-09T22:02:42.139Z,32.10
2019-01-09T22:05:44.181Z,33.17
2019-01-09T22:08:46.148Z,35.37
2019-01-09T22:11:48.672Z,38.37
2019-01-09T22:14:51.027Z,40.10
2019-01-09T22:17:53.019Z,44.33
2019-01-09T22:20:55.015Z,45.40
2019-01-09T22:23:56.983Z,50.00
2019-01-09T22:26:58.949Z,45.80
2019-01-09T22:30:00.870Z,47.63
2019-01-09T22:33:04.081Z,47.53
2019-01-09T22:36:06.100Z,44.10
2019-01-09T22:39:08.124Z,46.83
2019-01-09T22:42:11.986Z,45.23
2019-01-09T22:45:14.947Z,47.63
2019-01-09T22:48:16.895Z,45.23
2019-01-09T22:51:18.989Z,44.43
2019-01-09T22:54:21.169Z,44.87
2019-01-09T22:57:23.186Z,44.33
2019-01-09T23:00:29.388Z,47.33
2019-01-09T23:03:31.373Z,47.03
2019-01-09T23:06:34.226Z,45.03
2019-01-09T23:09:36.234Z,45.77
2019-01-09T23:12:38.149Z,44.33
2019-01-09T23:15:41.537Z,43.27
2019-01-09T23:18:43.794Z,42.97
2019-01-09T23:21:45.783Z,44.23
2019-01-09T23:24:47.937Z,45.47
2019-01-09T23:27:49.931Z,42.77
2019-01-09T23:30:51.910Z,45.53
2019-01-09T23:33:54.028Z,45.57
2019-01-09T23:36:55.996Z,47.40
2019-01-09T23:39:58.938Z,43.70
2019-01-09T23:43:00.912Z,45.10
2019-01-09T23:46:03.705Z,41.60
2019-01-09T23:49:05.686Z,43.80
2019-01-09T23:52:07.755Z,43.67
2019-01-09T23:55:11.505Z,46.57
2019-01-09T23:58:13.492Z,46.40
